Time;durP1;ratioP1;P1;durP2;ratioP2;P2;SDS_P1;SDS_P2;PMS_P1;PMS_P2;Temp;Humidity;BMP_temperature;BMP_pressure;BME280_temperature;BME280_humidity;BME280_pressure;Samples;Min_cycle;Max_cycle;Signal;HPM_P1;HPM_P2
2021/07/26 00:00:56;;;;;;;8.98;6.40;;;21.00;83.80;;;;;;5030928;28;20044;-71
2021/07/26 00:03:22;;;;;;;10.68;6.72;;;20.90;83.80;;;;;;5030791;28;20419;-70
2021/07/26 00:05:55;;;;;;;6.68;5.60;;;20.90;83.80;;;;;;5037350;28;20172;-70
2021/07/26 00:08:21;;;;;;;11.55;6.53;;;20.90;83.10;;;;;;5030163;28;20034;-70
2021/07/26 00:10:47;;;;;;;6.03;5.10;;;20.90;83.90;;;;;;5030257;28;20044;-70
2021/07/26 00:13:13;;;;;;;7.03;4.90;;;20.80;83.90;;;;;;5033389;28;20092;-71
2021/07/26 00:15:40;;;;;;;7.57;5.05;;;20.80;84.00;;;;;;5034607;28;20422;-70
2021/07/26 00:18:06;;;;;;;7.88;5.93;;;20.80;84.00;;;;;;5034447;28;20033;-70
2021/07/26 00:20:31;;;;;;;10.50;7.53;;;20.80;84.10;;;;;;5034456;28;20355;-71
2021/07/26 00:22:57;;;;;;;16.95;9.15;;;20.80;84.10;;;;;;5033972;28;20072;-71
2021/07/26 00:25:23;;;;;;;13.77;7.82;;;20.80;84.10;;;;;;5033276;28;20025;-70
2021/07/26 00:27:49;;;;;;;13.20;9.43;;;20.80;84.20;;;;;;5034206;28;20033;-70
2021/07/26 00:30:14;;;;;;;14.65;10.13;;;20.80;84.30;;;;;;5034095;28;20045;-70
2021/07/26 00:32:40;;;;;;;13.50;8.20;;;20.80;84.70;;;;;;5033776;28;20081;-71
2021/07/26 00:35:06;;;;;;;13.02;7.85;;;20.70;84.20;;;;;;5032713;28;20027;-71
2021/07/26 00:37:32;;;;;;;15.65;9.00;;;20.70;84.20;;;;;;5022139;28;20522;-71
2021/07/26 00:39:59;;;;;;;16.65;11.10;;;20.70;84.20;;;;;;5033655;28;20026;-70
2021/07/26 00:42:25;;;;;;;14.73;10.13;;;20.70;84.30;;;;;;5034103;28;20108;-70
2021/07/26 00:44:51;;;;;;;13.68;10.10;;;20.70;84.40;;;;;;5033559;28;20530;-71
2021/07/26 00:47:17;;;;;;;10.40;8.30;;;20.70;84.50;;;;;;5033506;28;20395;-71
2021/07/26 00:49:42;;;;;;;12.93;9.55;;;20.70;84.50;;;;;;5033231;28;20034;-71
2021/07/26 00:52:08;;;;;;;14.77;10.95;;;20.70;84.50;;;;;;5033831;28;20471;-70
2021/07/26 00:54:37;;;;;;;18.02;10.13;;;20.70;84.40;;;;;;5026137;28;20032;-70
2021/07/26 00:57:05;;;;;;;16.25;9.38;;;20.70;84.20;;;;;;5033781;28;20483;-70
2021/07/26 00:59:31;;;;;;;18.80;11.40;;;20.70;84.30;;;;;;5033272;28;20029;-71
2021/07/26 01:01:58;;;;;;;18.98;11.98;;;20.70;84.60;;;;;;5033313;28;20029;-71
2021/07/26 01:04:25;;;;;;;19.42;14.13;;;20.70;84.90;;;;;;5031733;28;20124;-71
2021/07/26 01:06:51;;;;;;;19.00;13.25;;;20.80;85.30;;;;;;5032924;28;20083;-70
2021/07/26 01:09:17;;;;;;;17.65;11.80;;;20.80;85.60;;;;;;5015741;28;20033;-70
2021/07/26 01:11:44;;;;;;;19.95;11.98;;;20.90;86.00;;;;;;5020577;28;20391;-70
2021/07/26 01:14:12;;;;;;;20.10;13.98;;;20.90;86.10;;;;;;5031629;28;20115;-70
2021/07/26 01:16:38;;;;;;;23.27;14.93;;;21.00;86.10;;;;;;5032910;28;20478;-70
2021/07/26 01:19:04;;;;;;;22.90;13.75;;;21.10;86.30;;;;;;5031497;28;20041;-72
2021/07/26 01:21:31;;;;;;;19.88;12.70;;;21.10;86.20;;;;;;5032628;28;20048;-71
2021/07/26 01:23:58;;;;;;;19.35;13.35;;;21.20;86.00;;;;;;5031180;28;20116;-71
2021/07/26 01:26:25;;;;;;;22.23;13.85;;;21.30;86.10;;;;;;5032927;28;20033;-70
2021/07/26 01:28:53;;;;;;;19.10;13.05;;;21.30;86.00;;;;;;5031319;28;20033;-71
2021/07/26 01:31:20;;;;;;;21.55;13.73;;;21.40;85.70;;;;;;5032551;28;20032;-71
2021/07/26 01:33:47;;;;;;;20.50;12.48;;;21.30;85.70;;;;;;5032380;28;20499;-70
2021/07/26 01:36:14;;;;;;;25.10;14.02;;;21.40;85.70;;;;;;5032491;28;20543;-70
2021/07/26 01:38:41;;;;;;;19.52;12.23;;;21.40;85.60;;;;;;5030873;28;20028;-70
2021/07/26 01:41:07;;;;;;;27.23;10.35;;;21.40;86.40;;;;;;5032341;28;20025;-71
2021/07/26 01:43:34;;;;;;;19.45;11.93;;;21.50;85.70;;;;;;5032527;28;20017;-71
2021/07/26 01:46:28;;;;;;;21.30;13.40;;;21.50;85.80;;;;;;5032380;28;20030;-71
2021/07/26 01:49:15;;;;;;;24.50;13.95;;;21.50;85.00;;;;;;5032624;28;20052;-70
2021/07/26 01:51:44;;;;;;;21.33;14.75;;;21.50;84.60;;;;;;5032111;28;20064;-70
2021/07/26 01:54:10;;;;;;;32.08;15.15;;;21.60;85.20;;;;;;5032244;28;20113;-71
2021/07/26 01:56:36;;;;;;;25.90;15.63;;;21.60;85.40;;;;;;5031459;28;20025;-70
2021/07/26 01:59:03;;;;;;;28.30;15.80;;;21.60;85.30;;;;;;5031838;28;20056;-71
2021/07/26 02:01:29;;;;;;;23.30;14.98;;;21.60;85.00;;;;;;5032287;28;20522;-70
2021/07/26 02:03:58;;;;;;;24.83;15.45;;;21.60;85.00;;;;;;5032069;28;20033;-70
2021/07/26 02:06:26;;;;;;;26.55;14.75;;;21.60;84.40;;;;;;5026873;28;20033;-70
2021/07/26 02:08:52;;;;;;;20.98;12.98;;;21.60;84.60;;;;;;5030059;28;20052;-70
2021/07/26 02:11:22;;;;;;;19.35;12.38;;;21.50;84.80;;;;;;5031930;28;20103;-70
2021/07/26 02:13:48;;;;;;;22.77;12.52;;;21.60;84.80;;;;;;5031882;28;20021;-71
2021/07/26 02:16:14;;;;;;;25.65;13.93;;;21.60;84.80;;;;;;5031667;28;20021;-71
2021/07/26 02:18:40;;;;;;;25.00;12.88;;;21.60;84.90;;;;;;5031842;28;20091;-71
2021/07/26 02:21:06;;;;;;;28.48;14.55;;;21.50;85.00;;;;;;5031656;28;20029;-71
2021/07/26 02:23:32;;;;;;;27.77;14.68;;;21.60;85.00;;;;;;5031874;28;20040;-71
2021/07/26 02:25:57;;;;;;;33.05;18.10;;;21.60;84.80;;;;;;5030964;28;20056;-70
2021/07/26 02:28:23;;;;;;;29.83;16.52;;;21.50;84.50;;;;;;5031656;28;20061;-70
2021/07/26 02:30:50;;;;;;;31.90;16.92;;;21.50;84.40;;;;;;5031200;28;20042;-71
2021/07/26 02:33:16;;;;;;;36.05;18.17;;;21.50;84.90;;;;;;5031648;28;20487;-70
2021/07/26 02:35:41;;;;;;;43.83;20.08;;;21.40;83.90;;;;;;5031281;28;20080;-71
2021/07/26 02:38:07;;;;;;;76.13;22.25;;;21.30;83.60;;;;;;5018436;28;20040;-71
2021/07/26 02:40:33;;;;;;;51.88;22.42;;;21.30;83.60;;;;;;5011941;28;20057;-71
2021/07/26 02:42:59;;;;;;;50.17;21.35;;;21.20;83.50;;;;;;5030331;28;20044;-71
2021/07/26 02:45:27;;;;;;;57.22;23.10;;;21.10;83.50;;;;;;5031286;28;20124;-71
2021/07/26 02:47:53;;;;;;;85.22;22.52;;;21.10;83.60;;;;;;5031309;28;20025;-71
2021/07/26 02:50:21;;;;;;;54.30;21.55;;;21.10;83.60;;;;;;5030218;28;20029;-70
2021/07/26 02:52:47;;;;;;;53.20;21.35;;;21.10;83.80;;;;;;5030998;28;20475;-70
2021/07/26 02:55:13;;;;;;;53.10;19.60;;;21.00;84.00;;;;;;5030844;28;20418;-71
2021/07/26 02:57:39;;;;;;;45.42;19.73;;;21.00;84.20;;;;;;5031351;28;20083;-70
2021/07/26 03:00:06;;;;;;;48.03;20.70;;;21.00;84.40;;;;;;5029922;28;20124;-70
2021/07/26 03:02:36;;;;;;;56.42;21.27;;;21.00;84.40;;;;;;5031337;28;20491;-71
2021/07/26 03:05:03;;;;;;;42.15;21.05;;;21.00;84.30;;;;;;5030909;28;20056;-71
2021/07/26 03:07:28;;;;;;;38.28;18.45;;;21.00;84.60;;;;;;5031046;28;20099;-70
2021/07/26 03:09:54;;;;;;;29.85;15.60;;;21.00;84.80;;;;;;5031178;28;20063;-71
2021/07/26 03:12:20;;;;;;;35.08;16.83;;;21.10;85.30;;;;;;5031234;28;20032;-70
2021/07/26 03:14:45;;;;;;;40.28;20.15;;;21.10;85.40;;;;;;5031266;28;20022;-71
2021/07/26 03:17:11;;;;;;;31.90;15.82;;;21.10;85.50;;;;;;5031256;28;20496;-70
2021/07/26 03:19:37;;;;;;;35.15;16.65;;;21.10;85.60;;;;;;5030998;28;20064;-70
2021/07/26 03:22:47;;;;;;;33.10;16.23;;;21.20;85.90;;;;;;5030986;28;20108;-70
2021/07/26 03:25:13;;;;;;;40.55;19.45;;;21.20;84.50;;;;;;5030867;28;20055;-68
2021/07/26 03:27:39;;;;;;;42.45;21.77;;;21.30;85.70;;;;;;5030960;28;20026;-71
2021/07/26 03:30:06;;;;;;;41.65;19.67;;;21.30;85.40;;;;;;5030695;28;20083;-70
2021/07/26 03:32:31;;;;;;;40.67;20.13;;;21.30;85.20;;;;;;5029056;28;20041;-69
2021/07/26 03:34:57;;;;;;;39.53;18.27;;;21.30;85.10;;;;;;5030931;28;20467;-70
2021/07/26 03:37:23;;;;;;;39.00;17.35;;;21.30;85.30;;;;;;5023868;28;20033;-71
2021/07/26 03:39:49;;;;;;;47.35;19.38;;;21.40;85.60;;;;;;5037507;28;20596;-70
2021/07/26 03:42:14;;;;;;;44.67;19.20;;;21.40;85.80;;;;;;5050763;28;20025;-70
2021/07/26 03:44:40;;;;;;;40.05;18.90;;;21.50;85.90;;;;;;5050828;28;20033;-70
2021/07/26 03:47:06;;;;;;;40.47;20.02;;;21.50;85.90;;;;;;5051807;28;20086;-71
2021/07/26 03:49:32;;;;;;;37.22;17.77;;;21.50;85.60;;;;;;5054668;28;20028;-70
2021/07/26 03:51:57;;;;;;;35.20;17.65;;;21.50;85.60;;;;;;5054752;28;20024;-71
2021/07/26 03:54:23;;;;;;;30.95;17.20;;;21.50;85.50;;;;;;5052957;28;20024;-71
2021/07/26 03:56:49;;;;;;;38.97;19.27;;;21.60;85.60;;;;;;5034750;28;20104;-70
2021/07/26 03:59:15;;;;;;;31.80;16.40;;;21.60;85.50;;;;;;5034323;28;20116;-69
2021/07/26 04:01:40;;;;;;;29.02;16.10;;;21.60;85.80;;;;;;5034708;28;20044;-71
2021/07/26 04:04:06;;;;;;;37.15;18.30;;;21.70;86.00;;;;;;5034027;28;20034;-70
2021/07/26 04:06:32;;;;;;;35.83;16.67;;;21.70;86.10;;;;;;5034399;28;20509;-70
2021/07/26 04:08:58;;;;;;;36.90;18.25;;;21.70;86.10;;;;;;5034071;28;20032;-70
2021/07/26 04:14:04;;;;;;;34.53;17.70;;;21.80;86.10;;;;;;5034147;28;20429;-70
2021/07/26 04:16:30;;;;;;;32.80;15.95;;;21.80;86.00;;;;;;5034316;28;20028;-69
2021/07/26 04:18:58;;;;;;;34.92;18.27;;;21.90;86.00;;;;;;5034256;28;20075;-70
2021/07/26 04:21:32;;;;;;;33.47;15.88;;;21.90;86.00;;;;;;5034313;28;20044;-71
2021/07/26 04:23:59;;;;;;;45.00;19.98;;;21.90;85.40;;;;;;5032905;28;20384;-70
2021/07/26 04:26:25;;;;;;;43.42;19.90;;;22.00;86.00;;;;;;5033917;28;20029;-72
2021/07/26 04:28:51;;;;;;;37.08;18.55;;;22.00;85.90;;;;;;5033799;28;20120;-72
2021/07/26 04:31:17;;;;;;;34.22;17.00;;;22.10;86.00;;;;;;5034096;28;20443;-71
2021/07/26 04:33:43;;;;;;;31.75;16.88;;;22.10;86.10;;;;;;5033885;28;20072;-72
2021/07/26 04:36:10;;;;;;;42.38;18.85;;;22.10;86.10;;;;;;5032704;28;20399;-71
2021/07/26 04:38:35;;;;;;;41.25;19.48;;;22.10;86.10;;;;;;5028962;28;20473;-71
2021/07/26 04:41:02;;;;;;;35.70;18.30;;;22.20;86.10;;;;;;5032530;28;20176;-71
2021/07/26 04:43:28;;;;;;;36.20;17.08;;;22.20;86.10;;;;;;5033892;28;20151;-71
2021/07/26 04:45:55;;;;;;;35.10;18.83;;;22.20;86.20;;;;;;5050571;28;20021;-71
2021/07/26 04:48:21;;;;;;;38.70;19.58;;;22.30;86.30;;;;;;5053715;28;20036;-71
2021/07/26 04:50:47;;;;;;;38.65;20.02;;;22.30;86.10;;;;;;5052389;28;20026;-72
2021/07/26 04:53:13;;;;;;;40.08;19.08;;;22.30;85.90;;;;;;5044288;28;20080;-71
2021/07/26 04:55:38;;;;;;;40.55;18.02;;;22.30;85.70;;;;;;5033190;28;20034;-71
2021/07/26 04:58:04;;;;;;;38.17;17.17;;;22.40;85.70;;;;;;5033561;28;20026;-71
2021/07/26 05:00:30;;;;;;;36.83;17.83;;;22.40;85.80;;;;;;5031859;28;20482;-71
2021/07/26 05:02:56;;;;;;;35.90;16.83;;;22.40;86.00;;;;;;5033527;28;20075;-71
2021/07/26 05:05:22;;;;;;;51.60;21.05;;;22.40;86.00;;;;;;5034106;28;20021;-71
2021/07/26 05:07:48;;;;;;;54.40;23.33;;;22.50;86.30;;;;;;5046058;28;20521;-72
2021/07/26 05:10:14;;;;;;;50.65;22.90;;;22.50;86.00;;;;;;5048153;28;20033;-72
2021/07/26 05:12:42;;;;;;;39.75;18.25;;;22.50;85.90;;;;;;5033257;28;20021;-71
2021/07/26 05:15:09;;;;;;;45.50;20.40;;;22.60;86.10;;;;;;5033486;28;20033;-71
2021/07/26 05:17:35;;;;;;;50.17;21.55;;;22.60;86.00;;;;;;5031839;28;20017;-70
2021/07/26 05:20:00;;;;;;;64.65;25.48;;;22.60;86.00;;;;;;5031785;28;20033;-71
2021/07/26 05:22:26;;;;;;;53.85;23.80;;;22.60;85.50;;;;;;5033179;28;20029;-72
2021/07/26 05:24:52;;;;;;;65.65;26.67;;;22.60;85.40;;;;;;5032586;28;20025;-72
2021/07/26 05:27:18;;;;;;;61.78;25.73;;;22.60;85.10;;;;;;5033150;28;20415;-72
2021/07/26 05:29:44;;;;;;;48.03;23.35;;;22.60;84.70;;;;;;5033033;28;20033;-71
2021/07/26 05:32:10;;;;;;;53.47;24.25;;;22.70;84.60;;;;;;5032702;28;20018;-72
2021/07/26 05:34:36;;;;;;;43.55;22.52;;;22.70;84.70;;;;;;5032858;28;20892;-72
2021/07/26 05:37:02;;;;;;;48.15;20.92;;;22.70;84.70;;;;;;5028594;28;20018;-71
2021/07/26 05:39:28;;;;;;;48.95;23.77;;;22.70;84.90;;;;;;5023788;28;20055;-71
2021/07/26 05:41:57;;;;;;;58.75;24.08;;;22.70;84.80;;;;;;5031191;28;20437;-72
2021/07/26 05:44:23;;;;;;;52.60;25.65;;;22.70;84.50;;;;;;5032749;28;20029;-70
2021/07/26 05:46:49;;;;;;;51.03;24.48;;;22.70;84.60;;;;;;5042560;28;20029;-72
2021/07/26 05:49:15;;;;;;;55.97;25.27;;;22.70;84.70;;;;;;5052380;28;20071;-70
2021/07/26 05:51:41;;;;;;;50.35;23.33;;;22.70;84.40;;;;;;5052520;28;20398;-72
2021/07/26 05:54:07;;;;;;;54.28;24.73;;;22.80;84.60;;;;;;5051629;28;20036;-71
2021/07/26 05:56:40;;;;;;;41.53;20.85;;;22.80;84.60;;;;;;5032226;28;20109;-72
2021/07/26 05:59:06;;;;;;;48.67;22.15;;;22.80;84.80;;;;;;5032587;28;20021;-71
2021/07/26 06:01:53;;;;;;;52.28;22.77;;;22.90;84.80;;;;;;5019578;28;20045;-72
2021/07/26 06:04:19;;;;;;;49.90;24.98;;;22.90;84.90;;;;;;5022328;28;20033;-70
2021/07/26 06:06:49;;;;;;;41.22;20.67;;;22.90;84.20;;;;;;5032360;28;20025;-70
2021/07/26 06:09:16;;;;;;;57.58;25.00;;;22.90;84.20;;;;;;5031848;28;20087;-71
2021/07/26 06:11:43;;;;;;;67.07;25.75;;;22.90;84.00;;;;;;5031712;28;20033;-71
2021/07/26 06:14:10;;;;;;;43.38;22.27;;;22.90;83.40;;;;;;5032009;28;20090;-72
2021/07/26 06:16:43;;;;;;;41.45;21.10;;;22.90;83.90;;;;;;5032080;28;20021;-72
2021/07/26 06:19:10;;;;;;;37.85;19.88;;;23.00;83.60;;;;;;5031910;28;20038;-71
2021/07/26 06:21:44;;;;;;;43.20;21.02;;;23.00;84.20;;;;;;5031979;28;20395;-72
2021/07/26 06:24:10;;;;;;;45.38;21.70;;;23.00;83.30;;;;;;5017784;28;20097;-72
2021/07/26 06:26:36;;;;;;;40.08;20.33;;;23.00;83.50;;;;;;5031982;28;20034;-72
2021/07/26 06:29:02;;;;;;;40.95;21.52;;;23.00;83.50;;;;;;5031588;28;20514;-72
2021/07/26 06:31:28;;;;;;;40.42;21.05;;;23.10;83.50;;;;;;5031648;28;20026;-71
2021/07/26 06:33:54;;;;;;;39.22;20.58;;;23.00;83.20;;;;;;5031205;28;20041;-71
2021/07/26 06:36:19;;;;;;;33.92;18.05;;;23.10;83.40;;;;;;5014087;28;20110;-71
2021/07/26 06:38:45;;;;;;;44.72;21.92;;;23.10;83.90;;;;;;5010591;28;20104;-71
2021/07/26 06:41:11;;;;;;;49.20;23.13;;;23.20;83.70;;;;;;5011767;28;20034;-72
2021/07/26 06:43:37;;;;;;;47.65;22.35;;;23.20;83.90;;;;;;5011872;28;20033;-71
2021/07/26 06:46:06;;;;;;;39.38;19.70;;;23.30;84.10;;;;;;5021150;28;20030;-71
2021/07/26 06:48:32;;;;;;;36.13;19.20;;;23.40;83.60;;;;;;5028960;28;20025;-71
2021/07/26 06:50:58;;;;;;;32.17;16.70;;;23.40;83.50;;;;;;5031142;28;20026;-72
2021/07/26 06:53:25;;;;;;;31.17;16.88;;;23.50;83.10;;;;;;5030979;28;20530;-72
2021/07/26 06:55:51;;;;;;;29.70;16.95;;;23.50;82.50;;;;;;5030724;28;20100;-72
2021/07/26 06:58:17;;;;;;;45.47;23.42;;;23.50;82.30;;;;;;5029483;28;20029;-72
2021/07/26 07:00:42;;;;;;;64.25;30.85;;;23.60;82.00;;;;;;5031109;28;20036;-72
2021/07/26 07:03:08;;;;;;;67.03;32.67;;;23.60;81.50;;;;;;5031328;28;20029;-72
2021/07/26 07:05:34;;;;;;;79.55;36.00;;;23.60;81.70;;;;;;5031203;28;20064;-71
2021/07/26 07:08:01;;;;;;;83.75;38.53;;;23.70;81.50;;;;;;5029750;28;20064;-72
2021/07/26 07:10:28;;;;;;;84.43;38.63;;;23.80;81.40;;;;;;5031108;28;20021;-72
2021/07/26 07:12:54;;;;;;;75.07;37.70;;;23.80;81.40;;;;;;5031191;28;20022;-72
2021/07/26 07:15:21;;;;;;;71.82;34.47;;;23.90;81.20;;;;;;5031028;28;20437;-72
2021/07/26 07:17:50;;;;;;;74.43;37.13;;;24.00;80.50;;;;;;5031219;28;20471;-72
2021/07/26 07:20:16;;;;;;;89.78;38.78;;;24.10;80.30;;;;;;5030876;28;20395;-70
2021/07/26 07:22:42;;;;;;;77.65;36.97;;;24.20;80.20;;;;;;5030112;28;20021;-73
2021/07/26 07:25:09;;;;;;;71.63;36.25;;;24.30;81.20;;;;;;5030479;28;20037;-73
2021/07/26 07:27:35;;;;;;;76.88;36.63;;;24.40;81.70;;;;;;5030590;28;20033;-71
2021/07/26 07:30:00;;;;;;;71.45;34.10;;;24.40;81.30;;;;;;5030764;28;20034;-72
2021/07/26 07:32:26;;;;;;;60.85;29.65;;;24.50;80.50;;;;;;5030551;28;20077;-72
2021/07/26 07:34:52;;;;;;;56.35;27.33;;;24.60;80.60;;;;;;5030655;28;20029;-72
2021/07/26 07:37:18;;;;;;;62.00;28.63;;;24.60;80.90;;;;;;5030322;28;20100;-72
2021/07/26 07:39:43;;;;;;;52.72;27.85;;;24.70;78.60;;;;;;5030685;28;20022;-72
2021/07/26 07:42:09;;;;;;;56.45;28.42;;;24.70;79.70;;;;;;5030594;28;20382;-74
2021/07/26 07:44:35;;;;;;;58.47;30.08;;;24.80;80.30;;;;;;5030572;28;20033;-72
2021/07/26 07:47:02;;;;;;;65.72;31.88;;;24.90;80.80;;;;;;5030792;28;20033;-72
2021/07/26 07:49:28;;;;;;;70.18;33.65;;;25.00;79.30;;;;;;5030398;28;20128;-72
2021/07/26 07:51:55;;;;;;;64.38;30.17;;;25.00;77.50;;;;;;5030422;28;20514;-72
2021/07/26 07:54:22;;;;;;;55.22;28.58;;;25.10;78.00;;;;;;5030329;28;20549;-72
2021/07/26 07:56:48;;;;;;;49.85;26.08;;;25.10;75.20;;;;;;5030918;28;20025;-72
2021/07/26 07:59:15;;;;;;;48.30;25.80;;;25.10;74.00;;;;;;5015202;28;20553;-71
2021/07/26 08:01:44;;;;;;;48.92;24.35;;;25.10;73.60;;;;;;5011705;28;20113;-72
2021/07/26 08:04:09;;;;;;;49.10;25.27;;;25.10;75.00;;;;;;5011673;28;20033;-72
2021/07/26 08:06:40;;;;;;;48.08;25.10;;;25.10;75.50;;;;;;5011711;28;20026;-72
2021/07/26 08:09:07;;;;;;;48.92;24.98;;;25.10;77.10;;;;;;5011453;28;20472;-71
2021/07/26 08:11:33;;;;;;;48.85;25.67;;;25.20;75.50;;;;;;5011744;28;20041;-71
2021/07/26 08:13:58;;;;;;;44.88;24.95;;;25.20;74.20;;;;;;5011731;28;20089;-72
2021/07/26 08:16:24;;;;;;;47.90;24.35;;;25.30;75.30;;;;;;5011662;28;20029;-74
2021/07/26 08:18:50;;;;;;;41.80;24.00;;;25.30;75.30;;;;;;5011713;28;20034;-72
2021/07/26 08:21:16;;;;;;;45.78;23.75;;;25.40;75.90;;;;;;5011712;28;20377;-72
2021/07/26 08:23:42;;;;;;;33.95;20.65;;;25.50;73.30;;;;;;5011636;28;20023;-71
2021/07/26 08:26:11;;;;;;;34.95;21.00;;;25.60;74.60;;;;;;5026089;28;20155;-69
2021/07/26 08:28:37;;;;;;;40.35;22.13;;;25.60;74.60;;;;;;5031202;28;20035;-71
2021/07/26 08:31:03;;;;;;;43.42;23.42;;;25.80;74.40;;;;;;5031216;28;20100;-73
2021/07/26 08:33:29;;;;;;;37.15;20.60;;;25.80;74.00;;;;;;5032337;28;20048;-72
2021/07/26 08:35:57;;;;;;;35.15;21.00;;;26.00;75.80;;;;;;5034780;28;20022;-72
2021/07/26 08:38:22;;;;;;;37.85;22.00;;;26.10;76.20;;;;;;5034506;28;20099;-72
2021/07/26 08:40:48;;;;;;;39.97;22.80;;;26.20;74.70;;;;;;5034803;28;20479;-72
2021/07/26 08:43:14;;;;;;;50.50;26.88;;;26.30;74.60;;;;;;5034790;28;20104;-73
2021/07/26 08:45:40;;;;;;;48.90;26.30;;;26.40;73.70;;;;;;5034657;28;20041;-72
2021/07/26 08:48:10;;;;;;;45.20;23.88;;;26.50;74.10;;;;;;5034438;28;20033;-71
2021/07/26 08:50:37;;;;;;;41.42;22.92;;;26.70;73.60;;;;;;5036339;28;20093;-71
2021/07/26 08:53:05;;;;;;;34.95;20.55;;;26.80;74.10;;;;;;5054250;28;20032;-71
2021/07/26 08:55:35;;;;;;;31.58;18.52;;;26.80;69.00;;;;;;5044197;28;20064;-71
2021/07/26 08:58:01;;;;;;;28.58;17.10;;;26.90;69.50;;;;;;5034323;28;20028;-72
2021/07/26 09:00:27;;;;;;;26.90;15.70;;;27.00;70.90;;;;;;5034264;28;20025;-72
2021/07/26 09:02:53;;;;;;;28.05;15.13;;;27.00;70.30;;;;;;5034165;28;20408;-72
2021/07/26 09:05:20;;;;;;;25.10;15.60;;;27.20;71.00;;;;;;5034302;28;20101;-71
2021/07/26 09:07:48;;;;;;;25.13;15.82;;;27.20;71.40;;;;;;5033076;28;20071;-72
2021/07/26 09:10:24;;;;;;;24.77;15.98;;;27.40;70.90;;;;;;5034244;28;20030;-73
2021/07/26 09:12:52;;;;;;;24.95;15.57;;;27.50;70.00;;;;;;5033028;28;20041;-73
2021/07/26 09:15:28;;;;;;;25.45;16.58;;;27.70;70.70;;;;;;5021569;28;20353;-72
2021/07/26 09:17:55;;;;;;;30.33;18.05;;;27.90;69.60;;;;;;5014079;28;20129;-72
2021/07/26 09:20:24;;;;;;;39.78;22.13;;;27.90;68.20;;;;;;5014190;28;20399;-73
2021/07/26 09:22:51;;;;;;;39.58;22.67;;;28.10;66.80;;;;;;5014045;28;20079;-72
2021/07/26 09:25:23;;;;;;;40.25;23.55;;;28.20;66.70;;;;;;5020641;28;20134;-72
2021/07/26 09:28:05;;;;;;;34.38;19.88;;;28.30;67.60;;;;;;5033905;28;20102;-74
2021/07/26 09:30:40;;;;;;;34.70;20.52;;;28.50;66.90;;;;;;5033881;28;20395;-72
2021/07/26 09:33:27;;;;;;;33.20;19.65;;;28.50;66.00;;;;;;5033796;28;20045;-74
2021/07/26 09:36:15;;;;;;;33.95;18.05;;;28.60;65.40;;;;;;5033898;28;20043;-73
2021/07/26 09:38:42;;;;;;;32.08;19.48;;;28.60;66.10;;;;;;5029804;28;20084;-73
2021/07/26 09:41:08;;;;;;;27.00;16.92;;;28.60;62.80;;;;;;5033582;28;20101;-75
2021/07/26 09:43:34;;;;;;;32.83;18.85;;;28.50;62.20;;;;;;5033494;28;20075;-71
2021/07/26 09:46:00;;;;;;;26.65;16.30;;;28.60;63.50;;;;;;5043452;28;20029;-71
2021/07/26 09:48:28;;;;;;;35.00;19.17;;;28.60;62.30;;;;;;5033360;28;20040;-72
2021/07/26 09:50:56;;;;;;;25.75;15.55;;;28.70;62.40;;;;;;5033313;28;20487;-72
2021/07/26 09:53:31;;;;;;;21.67;14.25;;;28.70;61.20;;;;;;5032934;28;20025;-72
2021/07/26 09:56:13;;;;;;;24.75;17.13;;;28.70;60.50;;;;;;5033101;28;20025;-73
2021/07/26 09:58:41;;;;;;;24.27;14.68;;;28.60;60.10;;;;;;5032970;28;20033;-72
2021/07/26 10:01:09;;;;;;;22.95;14.82;;;28.70;60.60;;;;;;5033305;28;20451;-73
2021/07/26 10:03:39;;;;;;;37.05;21.55;;;28.60;62.40;;;;;;5032678;28;20026;-73
2021/07/26 10:06:05;;;;;;;32.60;20.83;;;28.70;61.80;;;;;;5033987;28;20029;-73
2021/07/26 10:08:31;;;;;;;28.75;17.23;;;28.70;59.80;;;;;;5023577;28;20069;-74
2021/07/26 10:10:57;;;;;;;42.90;24.58;;;28.80;63.30;;;;;;5033196;28;20013;-73
2021/07/26 10:13:24;;;;;;;44.70;22.17;;;28.90;61.50;;;;;;5030378;28;20029;-74
2021/07/26 10:15:50;;;;;;;37.55;21.40;;;29.00;62.30;;;;;;5032487;28;20035;-75
2021/07/26 10:18:16;;;;;;;38.15;21.38;;;29.10;62.20;;;;;;5032661;28;20082;-73
2021/07/26 10:20:57;;;;;;;32.72;19.63;;;29.20;61.90;;;;;;5031540;28;20026;-74
2021/07/26 10:23:31;;;;;;;24.27;16.15;;;29.10;58.70;;;;;;5032977;28;20459;-73
2021/07/26 10:26:00;;;;;;;30.73;19.60;;;29.00;57.50;;;;;;5034101;28;20099;-72
2021/07/26 10:28:30;;;;;;;22.88;15.35;;;28.80;56.50;;;;;;5030174;28;20033;-72
2021/07/26 10:30:57;;;;;;;23.85;15.38;;;28.60;58.50;;;;;;5031132;28;20506;-73
2021/07/26 10:33:23;;;;;;;26.15;18.00;;;28.50;60.40;;;;;;5025024;28;20056;-74
2021/07/26 10:35:51;;;;;;;33.80;17.52;;;28.40;62.10;;;;;;5032926;28;20067;-70
2021/07/26 10:38:52;;;;;;;37.42;18.23;;;28.50;63.00;;;;;;5018341;28;20375;-72
2021/07/26 10:41:43;;;;;;;31.48;18.88;;;28.50;62.30;;;;;;5031697;28;20021;-72
2021/07/26 10:44:17;;;;;;;31.80;19.42;;;28.60;61.60;;;;;;5032578;28;20025;-69
2021/07/26 10:47:03;;;;;;;29.98;18.95;;;28.60;61.20;;;;;;5032285;28;20029;-71
2021/07/26 10:49:35;;;;;;;28.45;18.02;;;28.70;62.80;;;;;;5032342;28;20021;-72
2021/07/26 10:52:01;;;;;;;33.85;19.52;;;28.70;61.60;;;;;;5031715;28;20109;-70
2021/07/26 10:54:34;;;;;;;33.83;19.70;;;28.60;60.50;;;;;;5023027;28;20017;-66
2021/07/26 10:57:01;;;;;;;25.75;15.80;;;28.50;61.50;;;;;;5031646;28;20029;-71
2021/07/26 10:59:27;;;;;;;28.50;17.27;;;28.50;61.70;;;;;;5032146;28;20155;-71
2021/07/26 11:02:11;;;;;;;28.92;18.38;;;28.40;61.40;;;;;;5031772;28;20025;-71
2021/07/26 11:04:41;;;;;;;38.22;21.30;;;28.30;61.40;;;;;;5031931;28;20505;-71
2021/07/26 11:07:12;;;;;;;33.83;20.38;;;28.30;60.70;;;;;;5032067;28;20499;-71
2021/07/26 11:09:42;;;;;;;32.60;19.42;;;28.20;62.40;;;;;;5031523;28;20100;-72
2021/07/26 11:12:08;;;;;;;35.20;22.23;;;28.20;62.00;;;;;;5031670;28;20041;-74
2021/07/26 11:14:34;;;;;;;39.80;24.90;;;28.20;62.60;;;;;;5030578;28;20041;-74
2021/07/26 11:17:04;;;;;;;42.97;24.80;;;28.10;62.70;;;;;;5031345;28;20109;-66
2021/07/26 11:19:51;;;;;;;44.92;24.00;;;28.10;62.10;;;;;;5030920;28;20068;-72
2021/07/26 11:22:19;;;;;;;38.65;22.42;;;28.10;60.80;;;;;;5030210;28;20029;-73
2021/07/26 11:24:47;;;;;;;33.47;21.45;;;28.00;59.40;;;;;;5030394;28;20021;-73
2021/07/26 11:27:37;;;;;;;40.20;23.05;;;28.00;61.90;;;;;;5031794;28;20025;-67
2021/07/26 11:30:04;;;;;;;37.25;22.25;;;28.00;62.50;;;;;;5030509;28;20026;-69
2021/07/26 11:32:30;;;;;;;37.70;21.67;;;28.10;61.20;;;;;;5031358;28;20029;-71
2021/07/26 11:34:58;;;;;;;36.03;21.35;;;28.10;60.90;;;;;;5031798;28;20123;-73
2021/07/26 11:37:30;;;;;;;34.88;21.27;;;28.10;61.90;;;;;;5031451;28;20017;-71
2021/07/26 11:40:00;;;;;;;31.02;19.73;;;28.10;61.40;;;;;;5031683;28;20029;-77
2021/07/26 11:42:28;;;;;;;33.88;20.13;;;28.10;62.10;;;;;;5031722;28;20083;-77
2021/07/26 11:44:54;;;;;;;32.83;19.08;;;28.20;61.60;;;;;;5031689;28;20541;-77
2021/07/26 11:47:44;;;;;;;35.85;20.33;;;28.20;61.30;;;;;;5031893;28;20026;-77
2021/07/26 11:50:14;;;;;;;27.45;17.73;;;28.30;60.20;;;;;;5030512;28;20029;-77
2021/07/26 11:52:53;;;;;;;28.67;17.65;;;28.30;62.70;;;;;;5030054;28;20037;-77
2021/07/26 11:55:21;;;;;;;29.42;17.73;;;28.40;61.70;;;;;;5024345;28;20068;-77
2021/07/26 11:58:09;;;;;;;32.20;18.63;;;28.40;60.30;;;;;;5030151;28;20028;-76
2021/07/26 12:00:43;;;;;;;34.38;17.17;;;28.50;59.10;;;;;;5030161;28;20048;-76
2021/07/26 12:03:13;;;;;;;26.83;16.20;;;28.50;59.70;;;;;;5029578;28;20056;-76
2021/07/26 12:05:38;;;;;;;25.95;14.88;;;28.50;60.20;;;;;;5031140;28;20030;-77
2021/07/26 12:08:15;;;;;;;19.40;12.75;;;28.60;60.10;;;;;;5027676;28;20021;-76
2021/07/26 12:10:41;;;;;;;22.23;14.45;;;28.80;59.60;;;;;;5033107;28;20029;-77
2021/07/26 12:13:11;;;;;;;28.25;18.58;;;28.80;58.20;;;;;;5034446;28;20013;-77
2021/07/26 12:15:42;;;;;;;16.85;11.88;;;28.90;58.20;;;;;;5033064;28;20040;-77
2021/07/26 12:18:11;;;;;;;18.10;11.63;;;29.10;58.70;;;;;;5034476;28;20025;-78
2021/07/26 12:20:52;;;;;;;15.65;10.45;;;29.20;60.30;;;;;;5034632;28;20029;-76
2021/07/26 12:23:22;;;;;;;13.98;10.05;;;29.40;58.90;;;;;;5031731;28;20034;-77
2021/07/26 12:25:50;;;;;;;14.18;9.30;;;29.50;59.10;;;;;;5024117;28;20159;-77
2021/07/26 12:28:18;;;;;;;10.90;7.78;;;29.60;59.20;;;;;;5013182;28;20032;-76
2021/07/26 12:30:45;;;;;;;10.57;8.73;;;29.80;58.30;;;;;;5014698;28;20113;-77
2021/07/26 12:33:24;;;;;;;15.43;9.00;;;29.80;58.90;;;;;;5018968;28;20081;-76
2021/07/26 12:35:50;;;;;;;17.02;10.30;;;29.80;57.90;;;;;;5034259;28;20107;-77